• Join FlightAware (Why Join?)
  • Login
  • US Flag 
08:42PM EST


 

Airport Tracker/Info


-or-


 

Live Flight TrackerFlight Track Log ✈ FEX11 ✈ 04-Jul-2014 ✈ KPWM - CYKZ

Flight Track Log - Related Links

Times and Time Zones

All times are in EDT time to prevent confusion due to time zone crossing. See the FEX11 flight status page for this flight to view local times or setup timezone preferences in your user account.

Time Position Orientation Groundspeed Altitude Reporting Facility
EDT Latitude Longitude Course Direction KTS MPH feet Rate Location/Type
01:26PM 43.6417 -70.3733 282° West 196 226 2,200  Level Boston Center
01:27PM 43.6556 -70.4672 282° West 253 291 3,000 1,380 Climbing Boston Center
01:28PM 43.6789 -70.5631 289° West 260 299 5,100 3,000 Climbing Boston Center
01:29PM 43.6983 -70.6714 284° West 270 311 9,100 3,120 Climbing Boston Center
01:30PM 43.7194 -70.7867 284° West 314 361 11,400 2,940 Climbing Boston Center
01:31PM 43.7025 -70.9056 259° West 317 365 15,200 3,180 Climbing Boston Center
01:32PM 43.6625 -71.0161 243° Southwest 317 365 18,000 2,580 Climbing Boston Center
01:33PM 43.6389 -71.1328 254° West 337 388 20,500 2,340 Climbing Boston Center
01:34PM 43.6200 -71.2581 258° West 339 390 22,900 1,800 Climbing Boston Center
01:35PM 43.6022 -71.3894 259° West 347 399 24,300 1,860 Climbing Boston Center
01:36PM 43.6006 -71.5578 269° West 364 419 26,800 2,160 Climbing Boston Center
01:37PM 43.5861 -71.6875 261° West 349 402 28,800 1,860 Climbing Boston Center
01:38PM 43.5769 -71.8192 265° West 348 400 30,700 1,680 Climbing Boston Center
01:39PM 43.5686 -71.9533 265° West 348 400 32,200 1,200 Climbing Boston Center
01:40PM 43.5581 -72.0839 264° West 348 400 33,200 1,080 Climbing Boston Center
01:41PM 43.5475 -72.2186 264° West 350 403 34,500 1,320 Climbing Boston Center
01:42PM 43.5361 -72.3531 263° West 355 409 35,900 720 Climbing Boston Center
01:43PM 43.5256 -72.4892 264° West 355 409 36,000  Climbing Boston Center
01:44PM 43.5150 -72.6300 264° West 367 422 36,000  Level Boston Center
01:45PM 43.4994 -72.8056 263° West 381 438 36,000  Level Boston Center
01:46PM 43.4872 -72.9544 264° West 390 449 36,000  Level Boston Center
01:47PM 43.4756 -73.0931 263° West 395 455 36,000  Level Boston Center
01:48PM 43.4619 -73.2442 263° West 396 456 36,000  Level Boston Center
01:49PM 43.4489 -73.3944 263° West 396 456 36,000  Level Boston Center
01:50PM 43.4333 -73.5769 263° West 397 457 36,000  Level Boston Center
01:51PM 43.4192 -73.7261 263° West 397 457 36,000  Level Boston Center
01:52PM 43.4047 -73.8767 263° West 397 457 36,000  Level Boston Center
01:53PM 43.3906 -74.0267 263° West 397 457 36,000  Level Boston Center
01:54PM 43.3756 -74.1828 263° West 397 457 36,000  Level Boston Center
01:55PM 43.3600 -74.3342 262° West 396 456 36,000  Level Boston Center
01:56PM 43.3456 -74.4844 263° West 399 459 36,000  Level Boston Center
01:57PM 43.3311 -74.6350 263° West 399 459 36,000  Level Boston Center
01:58PM 43.3164 -74.7858 262° West 400 460 36,000  Level Boston Center
01:59PM 43.3011 -74.9353 262° West 399 459 36,000  Level Boston Center
02:00PM 43.2844 -75.0872 261° West 401 461 36,000  Level Boston Center
02:01PM 43.2669 -75.2483 262° West 401 461 36,000  Level Boston Center
02:02PM 43.2511 -75.4008 262° West 403 464 36,000  Level Boston Center
02:03PM 43.2350 -75.5525 262° West 402 463 36,000  Level Boston Center
02:04PM 43.2181 -75.7031 261° West 402 463 36,000  Level Boston Center
02:05PM 43.2014 -75.8547 261° West 402 463 36,000  Level Boston Center
02:06PM 43.1839 -76.0056 261° West 402 463 36,000  Level Boston Center
02:07PM 43.1642 -76.1847 261° West 401 461 36,000  Level Boston Center
02:08PM 43.1497 -76.3364 263° West 401 461 36,000  Level Boston Center
02:09PM 43.1392 -76.4875 265° West 401 461 36,000  Level Boston Center
02:10PM 43.1247 -76.6372 263° West 401 461 36,000  Level Boston Center
02:12PM 43.1117 -76.7889 263° West 401 461 36,000  Level Boston Center
02:12PM 43.1031 -76.8794 263° West 401 461 36,000  Level Cleveland Center
02:13PM 43.0892 -77.0314 263° West 402 463 36,000  Level Cleveland Center
02:14PM 43.0756 -77.1817 263° West 402 463 36,000  Level Cleveland Center
02:15PM 43.0614 -77.3344 263° West 403 464 36,000  Level Cleveland Center
02:16PM 43.0469 -77.4856 263° West 403 464 36,000 -300 Level Cleveland Center
02:17PM 43.0303 -77.6694 263° West 407 468 35,400 -840 Descending Cleveland Center
02:18PM 43.0144 -77.8278 262° West 419 482 34,300 -1,080 Descending Cleveland Center
02:19PM 42.9983 -77.9881 262° West 425 489 33,200 -1,500 Descending Cleveland Center
02:20PM 42.9825 -78.1483 262° West 431 496 31,300 -2,220 Descending Cleveland Center
02:21PM 42.9656 -78.3122 262° West 438 504 28,700 -2,940 Descending Cleveland Center
02:22PM 42.9447 -78.5028 262° West 416 479 25,300 -3,540 Descending Cleveland Center
02:23PM 42.9411 -78.6439 268° West 389 448 21,400 -3,300 Descending Cleveland Center
02:24PM 43.0014 -78.7556 306° West 372 428 18,600 -2,940 Descending Cleveland Center
02:25PM 43.0828 -78.8431 322° Northwest 371 427 15,400 -3,480 Descending Cleveland Center
02:26PM 43.1500 -78.9167 321° Northwest 350 403 11,900 -2,580 Descending Toronto Center
02:27PM 43.1667 -79.0167 283° West 320 368 10,500 -1,260 Descending Toronto Center
02:28PM 43.2333 -79.0833 324° Northwest 280 322 9,400 -1,740 Descending Toronto Center
02:29PM 43.3000 -79.1000 350° North 280 322 7,100 -2,160 Descending Toronto Center
02:30PM 43.3667 -79.1000 360° North 260 299 5,100 -1,560 Descending Toronto Center
02:31PM 43.4500 -79.1000 360° North 250 288 4,000 -900 Descending Toronto Center
02:32PM 43.5167 -79.1333 340° North 250 288 3,400 -540 Descending Toronto Center
02:33PM 43.5833 -79.1500 350° North 250 288 3,000 -240 Descending Toronto Center
02:34PM 43.6500 -79.1667 350° North 260 299 3,000 -60 Level Toronto Center
02:35PM 43.7167 -79.2000 340° North 250 288 2,900 -360 Descending Toronto Center
02:36PM 43.7500 -79.2333 324° Northwest 190 219 2,300 -540 Descending Toronto Center
02:37PM 43.8000 -79.2833 324° Northwest 170 196 1,900 -540 Descending Toronto Center
02:38PM 43.8167 -79.3167 305° West 130 150 1,300 -540 Descending Toronto Center
02:39PM 43.8500 -79.3500 324° Northwest 120 138 900 -420 Descending Toronto Center